createdAt,value
2018-02-20T00:01:24.180Z,75.68
2018-02-20T00:03:50.134Z,75.66
2018-02-20T00:06:15.981Z,75.78
2018-02-20T00:08:41.865Z,75.83
2018-02-20T00:11:07.708Z,75.60
2018-02-20T00:13:33.546Z,75.83
2018-02-20T00:15:59.541Z,75.81
2018-02-20T00:18:25.394Z,75.97
2018-02-20T00:20:51.236Z,75.84
2018-02-20T00:23:17.128Z,75.55
2018-02-20T00:25:42.982Z,75.63
2018-02-20T00:28:09.020Z,75.78
2018-02-20T00:30:35.310Z,75.51
2018-02-20T00:33:01.158Z,75.88
2018-02-20T00:35:26.992Z,75.82
2018-02-20T00:37:52.913Z,75.88
2018-02-20T00:40:18.848Z,75.69
2018-02-20T00:42:44.694Z,75.55
2018-02-20T00:45:10.571Z,75.59
2018-02-20T00:47:36.421Z,75.96
2018-02-20T00:50:02.278Z,76.10
2018-02-20T00:52:28.270Z,76.13
2018-02-20T00:54:54.122Z,76.11
2018-02-20T00:57:20.029Z,76.17
2018-02-20T00:59:45.904Z,75.73
2018-02-20T01:02:11.776Z,75.95
2018-02-20T01:04:37.716Z,76.05
2018-02-20T01:07:03.611Z,76.01
2018-02-20T01:09:29.524Z,76.25
2018-02-20T01:11:55.365Z,76.19
2018-02-20T01:14:21.270Z,76.26
2018-02-20T01:16:47.209Z,76.18
2018-02-20T01:19:13.058Z,75.98
2018-02-20T01:21:38.968Z,76.03
2018-02-20T01:24:04.869Z,76.02
2018-02-20T01:26:30.718Z,75.78
2018-02-20T01:28:56.734Z,75.66
2018-02-20T01:31:22.585Z,75.78
2018-02-20T01:33:48.434Z,75.89
2018-02-20T01:36:14.357Z,76.22
2018-02-20T01:38:40.203Z,76.08
2018-02-20T01:41:06.145Z,76.18
2018-02-20T01:43:32.270Z,76.48
2018-02-20T01:45:58.133Z,76.44
2018-02-20T01:48:23.977Z,76.63
2018-02-20T01:51:02.313Z,76.62
2018-02-20T01:53:28.251Z,76.61
2018-02-20T01:55:54.084Z,76.66
2018-02-20T01:58:20.011Z,76.89
2018-02-20T02:00:45.853Z,76.98
2018-02-20T02:03:11.776Z,77.46
2018-02-20T02:05:37.777Z,77.25
2018-02-20T02:08:03.641Z,77.31
2018-02-20T02:10:29.493Z,77.42
2018-02-20T02:12:55.397Z,77.69
2018-02-20T02:15:21.241Z,77.75
2018-02-20T02:17:47.173Z,78.08
2018-02-20T02:20:13.448Z,77.83
2018-02-20T02:22:39.288Z,77.64
2018-02-20T02:25:05.132Z,77.56
2018-02-20T02:27:31.018Z,77.98
2018-02-20T02:29:56.953Z,77.66
2018-02-20T02:32:22.789Z,77.70
2018-02-20T02:34:48.685Z,77.91
2018-02-20T02:37:14.533Z,78.06
2018-02-20T02:39:40.405Z,78.21
2018-02-20T02:42:06.426Z,78.07
2018-02-20T02:44:32.314Z,78.06
2018-02-20T02:46:58.194Z,78.25
2018-02-20T02:49:24.101Z,78.31
2018-02-20T02:51:49.953Z,78.18
2018-02-20T02:54:15.869Z,78.45
2018-02-20T02:56:41.854Z,78.72
2018-02-20T02:59:07.723Z,78.38
2018-02-20T03:01:33.578Z,78.86
2018-02-20T03:03:59.770Z,78.82
2018-02-20T03:06:25.715Z,79.24
2018-02-20T03:08:51.548Z,79.34
2018-02-20T03:11:17.445Z,79.57
2018-02-20T03:13:43.288Z,79.73
2018-02-20T03:16:09.133Z,79.69
2018-02-20T03:18:35.132Z,79.76
2018-02-20T03:21:00.988Z,79.89
2018-02-20T03:23:26.828Z,79.85
2018-02-20T03:25:52.717Z,79.99
2018-02-20T03:28:18.555Z,79.66
2018-02-20T03:30:44.484Z,79.44
2018-02-20T03:33:10.423Z,79.99
2018-02-20T03:35:36.268Z,80.01
2018-02-20T03:38:02.121Z,80.11
2018-02-20T03:40:28.120Z,80.22
2018-02-20T03:42:54.082Z,80.29
2018-02-20T03:45:19.936Z,80.43
2018-02-20T03:47:45.842Z,80.44
2018-02-20T03:50:11.688Z,80.83
2018-02-20T03:52:37.529Z,80.88
2018-02-20T03:55:03.558Z,80.88
2018-02-20T03:57:29.402Z,81.07
2018-02-20T03:59:55.505Z,81.17
2018-02-20T04:02:21.407Z,81.24
2018-02-20T04:04:47.576Z,81.43
2018-02-20T04:07:13.513Z,81.59
2018-02-20T04:09:39.400Z,81.46
2018-02-20T04:12:05.288Z,81.59
2018-02-20T04:14:31.137Z,81.27
2018-02-20T04:16:57.037Z,81.07
2018-02-20T04:19:22.968Z,80.97
2018-02-20T04:21:48.812Z,81.03
2018-02-20T04:24:14.702Z,81.27
2018-02-20T04:26:40.557Z,80.89
2018-02-20T04:29:06.405Z,80.81
2018-02-20T04:31:32.600Z,80.71
2018-02-20T04:33:58.469Z,80.83
2018-02-20T04:36:24.333Z,80.82
2018-02-20T04:38:50.401Z,80.85
2018-02-20T04:41:16.272Z,80.64
2018-02-20T04:43:42.220Z,80.84
2018-02-20T04:46:08.129Z,80.68
2018-02-20T04:48:33.971Z,80.43
2018-02-20T04:50:59.812Z,80.07
2018-02-20T04:53:25.698Z,79.89
2018-02-20T04:55:51.633Z,80.08
2018-02-20T04:58:17.478Z,79.87
2018-02-20T05:00:43.381Z,79.90
2018-02-20T05:03:09.226Z,80.07
2018-02-20T05:05:35.077Z,79.99
2018-02-20T05:08:01.062Z,80.12
2018-02-20T05:10:26.908Z,80.02
2018-02-20T05:12:52.792Z,80.30
2018-02-20T05:15:18.675Z,80.65
2018-02-20T05:17:44.538Z,80.52
2018-02-20T05:20:10.478Z,80.45
2018-02-20T05:22:36.362Z,80.58
2018-02-20T05:25:02.222Z,81.26
2018-02-20T05:27:28.074Z,80.65
2018-02-20T05:29:53.998Z,81.21
2018-02-20T05:32:19.932Z,81.39
2018-02-20T05:34:45.785Z,81.35
2018-02-20T05:37:11.774Z,81.47
2018-02-20T05:39:37.644Z,81.97
2018-02-20T05:42:03.518Z,82.27
2018-02-20T05:44:29.545Z,82.30
2018-02-20T05:46:55.393Z,82.04
2018-02-20T05:49:21.263Z,81.69
2018-02-20T05:51:47.174Z,81.46
2018-02-20T05:54:13.017Z,81.95
2018-02-20T05:56:38.953Z,82.02
2018-02-20T05:59:04.842Z,82.40
2018-02-20T06:01:31.548Z,82.49
2018-02-20T06:03:57.389Z,82.45
2018-02-20T06:06:23.357Z,82.44
2018-02-20T06:08:49.283Z,82.49
2018-02-20T06:11:15.140Z,82.42
2018-02-20T06:13:41.034Z,82.62
2018-02-20T06:16:06.957Z,82.72
2018-02-20T06:18:32.809Z,82.75
2018-02-20T06:20:58.865Z,82.87
2018-02-20T06:23:24.713Z,82.65
2018-02-20T06:25:50.556Z,82.71
2018-02-20T06:28:16.457Z,82.44
2018-02-20T06:30:42.349Z,82.75
2018-02-20T06:33:08.269Z,82.76
2018-02-20T06:35:34.189Z,82.75
2018-02-20T06:38:00.038Z,82.62
2018-02-20T06:40:25.886Z,82.54
2018-02-20T06:42:51.803Z,82.21
2018-02-20T06:45:17.788Z,81.98
2018-02-20T06:47:43.614Z,81.88
2018-02-20T06:50:09.518Z,81.73
2018-02-20T06:52:35.426Z,81.67
2018-02-20T06:55:01.265Z,81.08
2018-02-20T06:57:27.537Z,80.75
2018-02-20T06:59:53.437Z,80.70
2018-02-20T07:02:19.365Z,80.23
2018-02-20T07:04:45.546Z,79.60
2018-02-20T07:07:11.441Z,79.13
2018-02-20T07:09:37.388Z,79.04
2018-02-20T07:12:03.302Z,78.25
2018-02-20T07:14:29.146Z,78.28
2018-02-20T07:16:54.990Z,77.92
2018-02-20T07:19:20.958Z,77.46
2018-02-20T07:21:46.889Z,77.44
2018-02-20T07:24:12.729Z,77.57
2018-02-20T07:26:38.659Z,77.22
2018-02-20T07:29:04.526Z,77.52
2018-02-20T07:31:30.597Z,77.30
2018-02-20T07:33:56.593Z,76.96
2018-02-20T07:36:22.539Z,76.80
2018-02-20T07:38:48.394Z,76.47
2018-02-20T07:41:14.298Z,76.58
2018-02-20T07:43:40.133Z,75.83
2018-02-20T07:46:06.070Z,75.40
2018-02-20T07:48:31.962Z,74.77
2018-02-20T07:50:57.812Z,73.42
2018-02-20T07:53:23.678Z,72.68
2018-02-20T07:55:49.582Z,72.56
2018-02-20T07:58:15.517Z,72.28
2018-02-20T08:00:41.398Z,72.10
2018-02-20T08:03:07.293Z,71.99
2018-02-20T08:05:33.246Z,71.72
2018-02-20T08:07:59.076Z,70.40
2018-02-20T08:10:25.073Z,70.58
2018-02-20T08:12:50.929Z,70.29
2018-02-20T08:15:16.789Z,69.76
2018-02-20T08:17:42.675Z,69.42
2018-02-20T08:20:08.534Z,69.49
2018-02-20T08:22:34.552Z,68.54
2018-02-20T08:25:00.466Z,68.30
2018-02-20T08:27:26.308Z,67.70
2018-02-20T08:29:52.151Z,67.05
2018-02-20T08:32:18.048Z,66.95
2018-02-20T08:34:43.977Z,66.86
2018-02-20T08:37:09.808Z,66.63
2018-02-20T08:39:35.905Z,66.29
2018-02-20T08:42:01.762Z,66.45
2018-02-20T08:44:27.626Z,65.48
2018-02-20T08:46:53.614Z,65.68
2018-02-20T08:49:19.497Z,65.70
2018-02-20T08:51:45.352Z,65.09
2018-02-20T08:54:11.245Z,65.04
2018-02-20T08:56:37.125Z,64.92
2018-02-20T08:59:03.060Z,63.68
2018-02-20T09:01:29.306Z,63.73
2018-02-20T09:03:55.504Z,63.39
2018-02-20T09:06:21.388Z,63.04
2018-02-20T09:08:47.550Z,62.03
2018-02-20T09:11:13.553Z,60.52
2018-02-20T09:13:39.420Z,57.94
2018-02-20T09:16:05.408Z,56.73
2018-02-20T09:18:31.257Z,56.04
2018-02-20T09:20:57.110Z,55.54
2018-02-20T09:23:23.105Z,55.62
2018-02-20T09:25:49.103Z,54.33
2018-02-20T09:28:15.085Z,54.90
2018-02-20T09:30:40.974Z,54.97
2018-02-20T09:33:06.838Z,55.01
2018-02-20T09:35:33.070Z,54.82
2018-02-20T09:37:58.961Z,53.88
2018-02-20T09:40:24.817Z,52.54
2018-02-20T09:42:50.662Z,51.34
2018-02-20T09:45:16.545Z,50.82
2018-02-20T09:47:42.705Z,48.90
2018-02-20T09:50:08.564Z,47.39
2018-02-20T09:52:34.459Z,47.28
2018-02-20T09:55:00.313Z,46.65
2018-02-20T09:57:26.158Z,45.82
2018-02-20T09:59:52.137Z,44.80
2018-02-20T10:02:17.983Z,44.47
2018-02-20T10:04:43.851Z,44.63
2018-02-20T10:07:09.737Z,43.90
2018-02-20T10:09:35.602Z,43.14
2018-02-20T10:12:01.553Z,40.95
2018-02-20T10:14:27.657Z,40.29
2018-02-20T10:16:53.509Z,39.44
2018-02-20T10:19:19.361Z,37.73
2018-02-20T10:21:45.248Z,37.00
2018-02-20T10:24:11.184Z,35.52
2018-02-20T10:26:37.081Z,34.98
2018-02-20T10:29:02.956Z,34.03
2018-02-20T10:31:28.821Z,34.16
2018-02-20T10:33:54.670Z,32.65
2018-02-20T10:36:20.652Z,32.52
2018-02-20T10:41:18.114Z,31.43
2018-02-20T10:43:44.108Z,31.32
2018-02-20T10:46:10.054Z,31.47
2018-02-20T10:48:36.009Z,31.78
2018-02-20T10:51:01.968Z,32.09
2018-02-20T10:53:27.836Z,31.48
2018-02-20T10:55:53.713Z,31.60
2018-02-20T10:58:19.631Z,33.30
2018-02-20T11:00:45.603Z,37.37
2018-02-20T11:03:11.556Z,39.94
2018-02-20T11:05:37.544Z,42.07
2018-02-20T11:08:03.413Z,42.76
2018-02-20T11:10:29.288Z,43.73
2018-02-20T11:12:55.294Z,44.33
2018-02-20T11:15:21.228Z,45.01
2018-02-20T11:17:47.108Z,44.67
2018-02-20T11:20:13.028Z,45.06
2018-02-20T11:22:38.892Z,45.37
2018-02-20T11:25:04.869Z,45.48
2018-02-20T11:27:30.884Z,45.00
2018-02-20T11:30:03.704Z,44.91
2018-02-20T11:32:29.581Z,45.46
2018-02-20T11:34:55.505Z,44.84
2018-02-20T11:37:21.500Z,44.57
2018-02-20T11:39:47.462Z,43.10
2018-02-20T11:42:13.398Z,43.63
2018-02-20T11:44:39.269Z,43.49
2018-02-20T11:47:05.141Z,43.54
2018-02-20T11:49:38.188Z,43.69
2018-02-20T11:52:04.141Z,43.73
2018-02-20T11:54:30.015Z,44.97
2018-02-20T11:56:55.932Z,43.86
2018-02-20T11:59:21.818Z,44.25
2018-02-20T12:01:47.830Z,44.26
2018-02-20T12:04:13.804Z,43.93
2018-02-20T12:06:39.742Z,43.67
2018-02-20T12:09:05.619Z,43.37
2018-02-20T12:11:31.542Z,42.53
2018-02-20T12:13:57.527Z,42.51
2018-02-20T12:16:23.449Z,41.55
2018-02-20T12:18:49.360Z,41.40
2018-02-20T12:21:15.265Z,41.09
2018-02-20T12:23:41.144Z,40.93
2018-02-20T12:26:07.153Z,40.55
2018-02-20T12:28:33.087Z,40.34
2018-02-20T12:30:58.955Z,40.80
2018-02-20T12:33:24.867Z,40.03
2018-02-20T12:35:50.791Z,39.10
2018-02-20T12:38:16.977Z,38.37
2018-02-20T12:40:42.944Z,38.46
2018-02-20T12:43:08.812Z,38.76
2018-02-20T12:45:34.709Z,39.92
2018-02-20T12:48:00.781Z,39.50
2018-02-20T12:50:26.716Z,40.49
2018-02-20T12:52:52.749Z,39.97
2018-02-20T12:55:18.673Z,40.00
2018-02-20T12:57:44.667Z,39.50
2018-02-20T13:00:10.524Z,38.90
2018-02-20T13:02:36.541Z,39.95
2018-02-20T13:05:02.471Z,40.37
2018-02-20T13:07:28.353Z,41.65
2018-02-20T13:09:54.277Z,41.33
2018-02-20T13:12:20.154Z,41.56
2018-02-20T13:14:46.116Z,41.63
2018-02-20T13:17:12.079Z,41.45
2018-02-20T13:19:37.957Z,40.98
2018-02-20T13:22:03.846Z,41.58
2018-02-20T13:24:29.757Z,41.89
2018-02-20T13:26:55.721Z,42.31
2018-02-20T13:29:21.652Z,41.86
2018-02-20T13:31:47.567Z,42.02
2018-02-20T13:34:13.474Z,42.02
2018-02-20T13:36:39.344Z,42.19
2018-02-20T13:39:05.355Z,42.11
2018-02-20T13:41:31.293Z,42.38
2018-02-20T13:43:57.166Z,43.14
2018-02-20T13:46:23.075Z,42.54
2018-02-20T13:48:48.954Z,42.30
2018-02-20T13:51:14.965Z,42.81
2018-02-20T13:53:40.957Z,42.61
2018-02-20T13:56:06.842Z,42.80
2018-02-20T13:58:32.713Z,43.21
2018-02-20T14:00:58.629Z,42.41
2018-02-20T14:03:24.586Z,43.70
2018-02-20T14:05:50.521Z,43.38
2018-02-20T14:08:16.438Z,43.15
2018-02-20T14:10:42.316Z,42.29
2018-02-20T14:13:08.212Z,42.83
2018-02-20T14:15:34.532Z,43.14
2018-02-20T14:18:00.477Z,42.97
2018-02-20T14:20:26.364Z,43.81
2018-02-20T14:22:52.268Z,44.53
2018-02-20T14:25:18.147Z,44.57
2018-02-20T14:27:44.087Z,43.73
2018-02-20T14:30:10.069Z,44.19
2018-02-20T14:32:35.939Z,44.67
2018-02-20T14:35:01.805Z,44.45
2018-02-20T14:37:27.721Z,45.37
2018-02-20T14:39:53.681Z,45.23
2018-02-20T14:42:19.617Z,45.61
2018-02-20T14:44:45.846Z,46.13
2018-02-20T14:47:11.725Z,46.12
2018-02-20T14:49:44.536Z,46.35
2018-02-20T14:52:10.796Z,46.96
2018-02-20T14:54:36.753Z,45.48
2018-02-20T14:57:02.633Z,45.72
2018-02-20T14:59:28.557Z,45.23
2018-02-20T15:01:54.445Z,45.53
2018-02-20T15:04:20.737Z,46.59
2018-02-20T15:06:46.704Z,46.94
2018-02-20T15:09:12.589Z,46.99
2018-02-20T15:11:38.451Z,46.14
2018-02-20T15:14:04.368Z,46.43
2018-02-20T15:16:30.397Z,46.28
2018-02-20T15:18:56.380Z,46.42
2018-02-20T15:21:22.488Z,46.52
2018-02-20T15:23:48.545Z,47.84
2018-02-20T15:26:14.423Z,47.52
2018-02-20T15:28:40.525Z,46.17
2018-02-20T15:31:06.470Z,47.53
2018-02-20T15:33:32.337Z,47.48
2018-02-20T15:35:58.254Z,47.84
2018-02-20T15:38:24.120Z,48.07
2018-02-20T15:40:50.068Z,48.11
2018-02-20T15:43:16.354Z,48.63
2018-02-20T15:45:42.312Z,48.65
2018-02-20T15:48:08.189Z,48.21
2018-02-20T15:50:34.101Z,49.03
2018-02-20T15:53:00.109Z,48.67
2018-02-20T15:55:26.175Z,49.10
2018-02-20T15:57:52.118Z,49.65
2018-02-20T16:00:17.990Z,49.98
2018-02-20T16:02:43.860Z,50.44
2018-02-20T16:05:09.925Z,50.81
2018-02-20T16:07:36.020Z,50.24
2018-02-20T16:10:01.924Z,49.71
2018-02-20T16:12:27.846Z,51.14
2018-02-20T16:14:53.830Z,51.40
2018-02-20T16:17:19.805Z,51.02
2018-02-20T16:19:45.922Z,51.88
2018-02-20T16:22:11.886Z,51.43
2018-02-20T16:24:37.758Z,51.86
2018-02-20T16:27:03.689Z,51.80
2018-02-20T16:29:29.676Z,52.34
2018-02-20T16:31:55.605Z,52.67
2018-02-20T16:34:21.526Z,53.76
2018-02-20T16:36:47.401Z,53.71
2018-02-20T16:39:13.333Z,54.34
2018-02-20T16:41:39.349Z,55.12
2018-02-20T16:44:05.368Z,55.67
2018-02-20T16:46:31.274Z,56.02
2018-02-20T16:48:57.192Z,56.35
2018-02-20T16:51:23.061Z,56.41
2018-02-20T16:53:49.020Z,56.30
2018-02-20T16:56:15.060Z,56.86
2018-02-20T16:58:40.940Z,57.16
2018-02-20T17:01:06.888Z,57.31
2018-02-20T17:03:32.852Z,57.56
2018-02-20T17:05:58.825Z,58.46
2018-02-20T17:08:24.745Z,58.38
2018-02-20T17:10:50.660Z,58.41
2018-02-20T17:16:10.710Z,59.75
2018-02-20T17:18:36.637Z,60.29
2018-02-20T17:21:02.648Z,60.03
2018-02-20T17:23:28.585Z,60.36
2018-02-20T17:25:54.466Z,60.77
2018-02-20T17:28:20.430Z,61.20
2018-02-20T17:30:46.871Z,61.43
2018-02-20T17:33:12.765Z,61.65
2018-02-20T17:35:38.653Z,62.20
2018-02-20T17:38:04.590Z,62.87
2018-02-20T17:40:30.561Z,63.04
2018-02-20T17:42:56.502Z,62.72
2018-02-20T17:45:22.454Z,63.34
2018-02-20T17:47:48.445Z,63.31
2018-02-20T17:50:14.322Z,63.50
2018-02-20T17:52:40.365Z,63.34
2018-02-20T17:55:06.305Z,63.87
2018-02-20T17:57:32.281Z,63.43
2018-02-20T17:59:58.252Z,63.96
2018-02-20T18:02:24.175Z,64.08
2018-02-20T18:04:50.193Z,63.92
2018-02-20T18:07:16.373Z,64.50
2018-02-20T18:09:42.272Z,64.93
2018-02-20T18:12:08.135Z,64.45
2018-02-20T18:14:34.050Z,64.92
2018-02-20T18:17:00.072Z,64.76
2018-02-20T18:19:25.993Z,65.36
2018-02-20T18:21:52.010Z,65.26
2018-02-20T18:24:18.529Z,65.41
2018-02-20T18:26:44.417Z,65.39
2018-02-20T18:29:10.414Z,65.38
2018-02-20T18:31:36.349Z,65.26
2018-02-20T18:34:02.208Z,65.76
2018-02-20T18:36:28.205Z,65.57
2018-02-20T18:38:54.079Z,65.29
2018-02-20T18:41:20.081Z,65.83
2018-02-20T18:43:46.277Z,66.12
2018-02-20T18:46:12.190Z,66.58
2018-02-20T18:48:38.063Z,66.63
2018-02-20T18:51:04.532Z,66.91
2018-02-20T18:53:32.116Z,66.87
2018-02-20T18:55:58.059Z,66.98
2018-02-20T18:58:23.964Z,67.43
2018-02-20T19:00:49.994Z,68.14
2018-02-20T19:03:15.921Z,68.52
2018-02-20T19:05:41.953Z,69.30
2018-02-20T19:08:07.890Z,68.81
2018-02-20T19:10:33.852Z,69.97
2018-02-20T19:12:59.766Z,69.94
2018-02-20T19:15:25.628Z,69.87
2018-02-20T19:17:51.583Z,69.37
2018-02-20T19:20:17.854Z,70.17
2018-02-20T19:22:43.820Z,70.37
2018-02-20T19:25:09.705Z,70.35
2018-02-20T19:27:35.616Z,70.40
2018-02-20T19:30:01.660Z,69.78
2018-02-20T19:32:27.565Z,69.86
2018-02-20T19:34:54.323Z,70.17
2018-02-20T19:37:20.235Z,70.18
2018-02-20T19:39:46.112Z,70.94
2018-02-20T19:42:12.116Z,70.69
2018-02-20T19:44:38.046Z,71.33
2018-02-20T19:47:03.919Z,71.35
2018-02-20T19:49:29.844Z,71.60
2018-02-20T19:51:55.710Z,72.03
2018-02-20T19:54:21.683Z,72.06
2018-02-20T19:56:47.660Z,72.31
2018-02-20T19:59:13.545Z,72.00
2018-02-20T20:01:39.407Z,72.43
2018-02-20T20:04:05.996Z,73.71
2018-02-20T20:06:31.952Z,73.42
2018-02-20T20:08:57.873Z,73.24
2018-02-20T20:11:23.785Z,73.59
2018-02-20T20:13:50.472Z,73.59
2018-02-20T20:16:16.397Z,74.09
2018-02-20T20:18:42.414Z,74.42
2018-02-20T20:21:08.341Z,74.83
2018-02-20T20:23:34.214Z,74.98
2018-02-20T20:26:00.176Z,75.87
2018-02-20T20:28:26.046Z,75.45
2018-02-20T20:30:52.126Z,75.78
2018-02-20T20:33:18.105Z,76.17
2018-02-20T20:35:44.108Z,75.84
2018-02-20T20:38:09.993Z,75.99
2018-02-20T20:40:35.978Z,76.89
2018-02-20T20:43:01.954Z,77.25
2018-02-20T20:45:27.897Z,77.76
2018-02-20T20:47:53.850Z,77.85
2018-02-20T20:50:19.737Z,76.93
2018-02-20T20:52:45.639Z,77.00
2018-02-20T20:55:11.979Z,76.07
2018-02-20T20:57:37.912Z,76.41
2018-02-20T21:00:03.805Z,76.43
2018-02-20T21:02:29.736Z,76.54
2018-02-20T21:04:55.601Z,76.33
2018-02-20T21:07:21.556Z,76.66
2018-02-20T21:09:47.558Z,76.37
2018-02-20T21:12:13.422Z,76.70
2018-02-20T21:14:39.339Z,76.68
2018-02-20T21:17:05.253Z,76.56
2018-02-20T21:19:31.208Z,76.14
2018-02-20T21:21:57.120Z,76.24
2018-02-20T21:24:23.021Z,76.38
2018-02-20T21:26:48.889Z,76.22
2018-02-20T21:29:14.765Z,76.47
2018-02-20T21:31:40.783Z,77.25
2018-02-20T21:34:06.705Z,77.85
2018-02-20T21:36:32.577Z,78.04
2018-02-20T21:38:58.564Z,78.42
2018-02-20T21:41:24.446Z,78.40
2018-02-20T21:43:50.396Z,78.48
2018-02-20T21:46:16.384Z,78.27
2018-02-20T21:48:42.255Z,78.41
2018-02-20T21:51:08.130Z,77.26
2018-02-20T21:53:34.336Z,77.66
2018-02-20T21:56:00.289Z,77.68
2018-02-20T21:58:26.216Z,78.09
2018-02-20T22:00:52.512Z,78.74
2018-02-20T22:03:18.461Z,78.11
2018-02-20T22:05:44.356Z,78.08
2018-02-20T22:08:10.366Z,78.14
2018-02-20T22:10:36.309Z,78.47
2018-02-20T22:13:02.188Z,78.48
2018-02-20T22:15:28.114Z,78.64
2018-02-20T22:17:53.976Z,78.78
2018-02-20T22:20:19.964Z,78.75
2018-02-20T22:22:45.923Z,78.25
2018-02-20T22:25:11.852Z,78.32
2018-02-20T22:27:37.721Z,78.62
2018-02-20T22:30:03.709Z,78.43
2018-02-20T22:32:29.630Z,77.88
2018-02-20T22:34:55.576Z,77.89
2018-02-20T22:37:21.489Z,78.15
2018-02-20T22:39:47.356Z,78.32
2018-02-20T22:42:13.246Z,78.32
2018-02-20T22:44:39.274Z,78.77
2018-02-20T22:47:05.210Z,78.44
2018-02-20T22:49:31.070Z,78.25
2018-02-20T22:51:57.052Z,78.79
2018-02-20T22:54:22.937Z,78.23
2018-02-20T22:56:48.883Z,77.80
2018-02-20T22:59:14.861Z,77.64
2018-02-20T23:01:40.740Z,78.53
2018-02-20T23:04:06.612Z,78.46
2018-02-20T23:06:32.660Z,78.43
2018-02-20T23:08:58.617Z,78.87
2018-02-20T23:11:36.996Z,78.91
2018-02-20T23:14:02.894Z,78.95
2018-02-20T23:16:28.761Z,78.71
2018-02-20T23:18:54.685Z,78.44
2018-02-20T23:21:20.671Z,78.75
2018-02-20T23:23:46.605Z,78.41
2018-02-20T23:26:12.530Z,79.25
2018-02-20T23:28:38.406Z,78.50
2018-02-20T23:31:04.312Z,78.84
2018-02-20T23:33:30.765Z,79.08
2018-02-20T23:35:57.081Z,78.84
2018-02-20T23:38:23.097Z,78.43
2018-02-20T23:40:49.386Z,78.30
2018-02-20T23:43:15.635Z,78.27
2018-02-20T23:45:41.828Z,78.88
2018-02-20T23:48:08.248Z,78.79
2018-02-20T23:50:34.334Z,78.61
2018-02-20T23:53:00.476Z,78.84
2018-02-20T23:55:26.799Z,79.07
2018-02-20T23:57:53.144Z,78.96
